createdAt,value
2019-01-11T00:00:48.292Z,7.63
2019-01-11T00:03:17.489Z,9.23
2019-01-11T00:05:46.844Z,8.50
2019-01-11T00:08:16.022Z,8.73
2019-01-11T00:10:45.208Z,7.63
2019-01-11T00:13:14.377Z,9.03
2019-01-11T00:15:43.549Z,8.83
2019-01-11T00:18:12.882Z,8.50
2019-01-11T00:20:42.064Z,7.40
2019-01-11T00:23:11.230Z,8.10
2019-01-11T00:25:40.419Z,9.50
2019-01-11T00:28:09.589Z,8.57
2019-01-11T00:30:39.745Z,11.13
2019-01-11T00:33:08.918Z,8.77
2019-01-11T00:35:38.101Z,8.90
2019-01-11T00:38:07.294Z,8.77
2019-01-11T00:40:36.469Z,9.00
2019-01-11T00:43:05.633Z,8.40
2019-01-11T00:45:34.829Z,8.40
2019-01-11T00:48:04.103Z,9.90
2019-01-11T00:50:33.293Z,8.53
2019-01-11T00:53:02.482Z,8.87
2019-01-11T00:55:35.225Z,9.20
2019-01-11T00:58:04.549Z,9.40
2019-01-11T01:00:33.751Z,9.03
2019-01-11T01:03:02.938Z,7.97
2019-01-11T01:05:32.103Z,9.80
2019-01-11T01:08:01.278Z,10.50
2019-01-11T01:10:30.481Z,12.63
2019-01-11T01:12:59.668Z,11.87
2019-01-11T01:15:28.879Z,16.40
2019-01-11T01:17:58.116Z,15.27
2019-01-11T01:20:27.296Z,14.60
2019-01-11T01:22:56.497Z,14.53
2019-01-11T01:25:25.701Z,14.40
2019-01-11T01:27:55.851Z,16.50
2019-01-11T01:30:25.037Z,15.13
2019-01-11T01:32:54.217Z,14.90
2019-01-11T01:35:23.409Z,16.57
2019-01-11T01:37:52.584Z,17.00
2019-01-11T01:40:21.777Z,18.57
2019-01-11T01:42:50.976Z,15.50
2019-01-11T01:45:20.333Z,14.27
2019-01-11T01:47:49.509Z,14.10
2019-01-11T01:50:18.765Z,15.10
2019-01-11T01:52:48.262Z,14.00
2019-01-11T01:55:17.430Z,11.37
2019-01-11T01:57:46.616Z,11.23
2019-01-11T02:00:18.745Z,12.00
2019-01-11T02:02:48.075Z,12.70
2019-01-11T02:05:17.316Z,11.87
2019-01-11T02:07:46.501Z,13.30
2019-01-11T02:10:15.752Z,11.67
2019-01-11T02:12:45.001Z,12.73
2019-01-11T02:15:14.244Z,14.43
2019-01-11T02:17:43.478Z,12.77
2019-01-11T02:20:16.838Z,12.10
2019-01-11T02:22:46.092Z,14.80
2019-01-11T02:25:15.782Z,14.70
2019-01-11T02:27:44.938Z,12.97
2019-01-11T02:30:17.055Z,13.90
2019-01-11T02:32:52.375Z,12.60
2019-01-11T02:35:17.155Z,11.90
2019-01-11T02:37:46.341Z,12.87
2019-01-11T02:40:15.918Z,13.80
2019-01-11T02:42:45.147Z,14.13
2019-01-11T02:45:19.184Z,14.20
2019-01-11T02:47:48.387Z,13.43
2019-01-11T02:50:17.689Z,17.43
2019-01-11T02:52:46.956Z,13.30
2019-01-11T02:55:16.275Z,15.57
2019-01-11T02:57:45.554Z,14.40
2019-01-11T03:00:17.970Z,13.90
2019-01-11T03:02:47.246Z,14.67
2019-01-11T03:05:16.916Z,14.77
2019-01-11T03:07:46.292Z,13.77
2019-01-11T03:10:20.097Z,17.13
2019-01-11T03:12:49.294Z,13.80
2019-01-11T03:15:19.174Z,14.97
2019-01-11T03:17:48.551Z,15.07
2019-01-11T03:20:18.219Z,14.57
2019-01-11T03:22:47.722Z,16.03
2019-01-11T03:25:17.027Z,15.00
2019-01-11T03:27:46.255Z,13.77
2019-01-11T03:30:18.083Z,13.30
2019-01-11T03:32:47.465Z,12.07
2019-01-11T03:35:18.064Z,14.50
2019-01-11T03:37:48.526Z,16.33
2019-01-11T03:40:22.090Z,17.30
2019-01-11T03:42:51.562Z,15.30
2019-01-11T03:45:21.904Z,15.77
2019-01-11T03:47:51.122Z,12.23
2019-01-11T03:50:20.765Z,15.87
2019-01-11T03:52:50.033Z,14.20
2019-01-11T03:55:19.374Z,15.70
2019-01-11T03:57:48.839Z,15.13
2019-01-11T04:00:21.355Z,14.27
2019-01-11T04:02:50.927Z,16.93
2019-01-11T04:05:20.587Z,19.40
2019-01-11T04:07:50.101Z,18.47
2019-01-11T04:10:20.878Z,19.57
2019-01-11T04:12:50.083Z,18.77
2019-01-11T04:15:20.670Z,20.60
2019-01-11T04:18:00.878Z,20.83
2019-01-11T04:20:30.110Z,22.60
2019-01-11T04:22:59.339Z,21.43
2019-01-11T04:25:28.545Z,20.67
2019-01-11T04:27:57.770Z,22.90
2019-01-11T04:30:26.978Z,19.30
2019-01-11T04:32:56.213Z,22.87
2019-01-11T04:35:25.840Z,20.00
2019-01-11T04:37:55.059Z,25.77
2019-01-11T04:40:24.277Z,19.93
2019-01-11T04:42:53.489Z,26.77
2019-01-11T04:45:22.714Z,26.30
2019-01-11T04:47:51.931Z,31.60
2019-01-11T04:50:21.161Z,26.73
2019-01-11T04:52:50.373Z,21.13
2019-01-11T04:55:19.946Z,23.13
2019-01-11T04:57:49.149Z,22.43
2019-01-11T05:00:20.223Z,24.20
2019-01-11T05:02:49.415Z,22.27
2019-01-11T05:05:18.723Z,22.57
2019-01-11T05:07:48.021Z,23.27
2019-01-11T05:10:18.085Z,28.23
2019-01-11T05:12:48.431Z,23.27
2019-01-11T05:15:18.799Z,25.90
2019-01-11T05:17:48.049Z,21.63
2019-01-11T05:20:17.570Z,25.80
2019-01-11T05:22:46.852Z,29.67
2019-01-11T05:25:16.481Z,23.13
2019-01-11T05:27:45.673Z,30.10
2019-01-11T05:30:16.453Z,25.80
2019-01-11T05:32:45.640Z,26.90
2019-01-11T05:35:14.939Z,26.27
2019-01-11T05:37:44.153Z,25.43
2019-01-11T05:40:15.916Z,28.23
2019-01-11T05:42:45.122Z,25.50
2019-01-11T05:45:14.487Z,30.00
2019-01-11T05:47:43.682Z,29.83
2019-01-11T05:50:15.634Z,27.97
2019-01-11T05:52:44.867Z,27.83
2019-01-11T05:55:15.691Z,28.03
2019-01-11T05:57:46.556Z,25.60
2019-01-11T06:00:15.761Z,36.23
2019-01-11T06:02:44.974Z,25.43
2019-01-11T06:05:14.174Z,29.93
2019-01-11T06:07:45.157Z,24.63
2019-01-11T06:10:15.192Z,31.80
2019-01-11T06:12:44.410Z,25.90
2019-01-11T06:15:13.606Z,28.67
2019-01-11T06:17:42.838Z,30.10
2019-01-11T06:20:14.503Z,31.07
2019-01-11T06:22:43.703Z,32.37
2019-01-11T06:25:12.934Z,28.57
2019-01-11T06:27:42.153Z,34.43
2019-01-11T06:30:13.696Z,29.53
2019-01-11T06:32:42.919Z,28.60
2019-01-11T06:35:12.123Z,29.57
2019-01-11T06:37:41.338Z,27.70
2019-01-11T06:40:11.885Z,26.50
2019-01-11T06:42:41.109Z,28.20
2019-01-11T06:45:11.260Z,30.57
2019-01-11T06:47:40.557Z,27.10
2019-01-11T06:50:17.380Z,35.53
2019-01-11T06:52:47.679Z,31.27
2019-01-11T06:55:16.915Z,31.37
2019-01-11T06:57:46.138Z,27.07
2019-01-11T07:00:17.342Z,27.97
2019-01-11T07:02:46.620Z,27.20
2019-01-11T07:05:15.862Z,26.40
2019-01-11T07:07:45.068Z,33.40
2019-01-11T07:10:22.520Z,30.03
2019-01-11T07:12:51.735Z,28.37
2019-01-11T07:15:21.277Z,30.80
2019-01-11T07:17:50.494Z,30.80
2019-01-11T07:20:20.102Z,34.53
2019-01-11T07:22:49.302Z,30.30
2019-01-11T07:25:18.903Z,29.83
2019-01-11T07:27:49.750Z,32.93
2019-01-11T07:30:19.042Z,30.73
2019-01-11T07:32:48.268Z,31.27
2019-01-11T07:35:17.479Z,28.40
2019-01-11T07:37:46.685Z,28.53
2019-01-11T07:40:15.923Z,30.27
2019-01-11T07:42:45.269Z,31.97
2019-01-11T07:45:15.067Z,29.57
2019-01-11T07:47:44.304Z,29.87
2019-01-11T07:50:13.497Z,27.00
2019-01-11T07:52:42.727Z,27.43
2019-01-11T07:55:12.103Z,27.03
2019-01-11T07:57:41.334Z,28.53
2019-01-11T08:00:11.882Z,33.27
2019-01-11T08:02:41.173Z,35.37
2019-01-11T08:05:10.455Z,29.30
2019-01-11T08:07:39.856Z,28.53
2019-01-11T08:10:13.019Z,29.77
2019-01-11T08:12:42.225Z,29.43
2019-01-11T08:15:17.328Z,32.67
2019-01-11T08:17:46.533Z,32.07
2019-01-11T08:20:15.767Z,30.97
2019-01-11T08:22:45.051Z,27.90
2019-01-11T08:25:15.009Z,25.97
2019-01-11T08:27:45.010Z,26.30
2019-01-11T08:30:18.507Z,24.97
2019-01-11T08:32:47.881Z,25.80
2019-01-11T08:35:18.082Z,25.67
2019-01-11T08:37:47.306Z,29.10
2019-01-11T08:40:16.506Z,26.43
2019-01-11T08:42:45.737Z,21.30
2019-01-11T08:45:15.409Z,21.43
2019-01-11T08:47:44.622Z,24.30
2019-01-11T08:50:19.310Z,20.93
2019-01-11T08:52:48.689Z,21.27
2019-01-11T08:55:18.359Z,23.43
2019-01-11T08:57:47.621Z,24.00
2019-01-11T09:00:17.303Z,21.20
2019-01-11T09:02:46.508Z,20.67
2019-01-11T09:05:15.751Z,19.30
2019-01-11T09:07:45.017Z,20.10
2019-01-11T09:10:22.368Z,17.97
2019-01-11T09:12:47.217Z,21.47
2019-01-11T09:15:16.690Z,30.57
2019-01-11T09:18:03.150Z,20.50
2019-01-11T09:20:32.350Z,21.63
2019-01-11T09:23:01.566Z,23.30
2019-01-11T09:25:30.803Z,21.43
2019-01-11T09:28:00.294Z,21.30
2019-01-11T09:30:29.531Z,18.87
2019-01-11T09:32:58.757Z,19.90
2019-01-11T09:35:28.267Z,19.17
2019-01-11T09:37:57.762Z,24.70
2019-01-11T09:40:27.002Z,21.37
2019-01-11T09:42:56.198Z,21.20
2019-01-11T09:45:25.421Z,18.97
2019-01-11T09:47:54.634Z,23.20
2019-01-11T09:50:23.867Z,20.83
2019-01-11T09:52:53.081Z,20.43
2019-01-11T09:55:22.309Z,19.47
2019-01-11T09:57:51.552Z,22.40
2019-01-11T10:00:24.255Z,20.27
2019-01-11T10:02:55.098Z,21.83
2019-01-11T10:05:24.326Z,25.70
2019-01-11T10:07:53.531Z,24.77
2019-01-11T10:10:22.752Z,23.17
2019-01-11T10:12:51.951Z,22.40
2019-01-11T10:15:21.250Z,20.60
2019-01-11T10:17:50.490Z,25.03
2019-01-11T10:20:19.860Z,26.20
2019-01-11T10:22:49.094Z,24.80
2019-01-11T10:25:18.898Z,25.97
2019-01-11T10:27:48.205Z,25.90
2019-01-11T10:30:19.229Z,23.93
2019-01-11T10:32:48.757Z,24.27
2019-01-11T10:35:18.132Z,20.03
2019-01-11T10:37:47.397Z,23.60
2019-01-11T10:40:17.970Z,21.10
2019-01-11T10:42:47.361Z,22.97
2019-01-11T10:45:18.717Z,28.00
2019-01-11T10:47:47.922Z,23.00
2019-01-11T10:50:17.798Z,23.33
2019-01-11T10:52:47.096Z,20.80
2019-01-11T10:55:17.833Z,21.00
2019-01-11T10:57:48.063Z,18.47
2019-01-11T11:00:22.468Z,20.37
2019-01-11T11:02:52.542Z,21.43
2019-01-11T11:05:22.512Z,30.10
2019-01-11T11:07:51.718Z,25.33
2019-01-11T11:10:20.998Z,24.63
2019-01-11T11:12:50.222Z,23.93
2019-01-11T11:15:19.573Z,22.40
2019-01-11T11:17:48.799Z,22.20
2019-01-11T11:20:19.019Z,23.10
2019-01-11T11:22:48.431Z,24.00
2019-01-11T11:25:19.465Z,23.17
2019-01-11T11:27:48.753Z,22.10
2019-01-11T11:30:18.976Z,22.60
2019-01-11T11:32:58.136Z,17.43
2019-01-11T11:35:27.810Z,24.83
2019-01-11T11:37:57.100Z,19.63
2019-01-11T11:40:26.475Z,21.73
2019-01-11T11:42:55.662Z,20.77
2019-01-11T11:45:24.979Z,19.00
2019-01-11T11:47:54.178Z,20.20
2019-01-11T11:50:23.410Z,20.43
2019-01-11T11:52:53.729Z,21.70
2019-01-11T11:55:24.094Z,18.70
2019-01-11T11:57:53.330Z,19.83
2019-01-11T12:00:23.095Z,22.57
2019-01-11T12:02:52.606Z,18.50
2019-01-11T12:05:21.835Z,21.90
2019-01-11T12:07:51.027Z,18.50
2019-01-11T12:10:20.488Z,23.93
2019-01-11T12:12:49.726Z,22.53
2019-01-11T12:15:19.030Z,33.33
2019-01-11T12:17:48.238Z,22.30
2019-01-11T12:20:20.901Z,23.17
2019-01-11T12:22:50.101Z,24.73
2019-01-11T12:25:19.331Z,24.53
2019-01-11T12:27:49.624Z,20.17
2019-01-11T12:30:19.088Z,20.07
2019-01-11T12:32:48.384Z,22.10
2019-01-11T12:35:19.227Z,22.70
2019-01-11T12:37:48.467Z,22.17
2019-01-11T12:40:17.662Z,25.57
2019-01-11T12:42:48.178Z,20.97
2019-01-11T12:45:17.555Z,22.50
2019-01-11T12:47:46.778Z,20.83
2019-01-11T12:50:21.254Z,23.10
2019-01-11T12:52:50.489Z,21.40
2019-01-11T12:55:19.697Z,20.20
2019-01-11T12:57:48.918Z,27.73
2019-01-11T13:00:19.018Z,20.33
2019-01-11T13:02:48.387Z,19.80
2019-01-11T13:05:19.731Z,19.63
2019-01-11T13:07:48.932Z,24.07
2019-01-11T13:10:19.095Z,24.07
2019-01-11T13:12:48.304Z,22.03
2019-01-11T13:15:19.169Z,22.70
2019-01-11T13:17:48.524Z,21.40
2019-01-11T13:20:19.388Z,21.30
2019-01-11T13:22:49.298Z,18.90
2019-01-11T13:25:18.569Z,19.83
2019-01-11T13:27:48.463Z,21.57
2019-01-11T13:30:18.349Z,20.57
2019-01-11T13:32:47.723Z,19.57
2019-01-11T13:35:17.090Z,19.17
2019-01-11T13:37:46.592Z,23.30
2019-01-11T13:40:22.101Z,20.53
2019-01-11T13:42:51.458Z,19.37
2019-01-11T13:45:22.567Z,19.27
2019-01-11T13:47:51.985Z,19.57
2019-01-11T13:50:32.900Z,25.73
2019-01-11T13:53:02.305Z,21.70
2019-01-11T13:55:31.586Z,21.93
2019-01-11T13:58:00.865Z,21.77
2019-01-11T14:00:30.090Z,19.43
2019-01-11T14:02:59.299Z,20.07
2019-01-11T14:05:28.538Z,19.40
2019-01-11T14:07:57.829Z,22.30
2019-01-11T14:10:27.954Z,20.33
2019-01-11T14:12:57.190Z,19.70
2019-01-11T14:15:26.416Z,22.87
2019-01-11T14:17:55.642Z,19.90
2019-01-11T14:20:24.885Z,21.40
2019-01-11T14:22:54.087Z,22.50
2019-01-11T14:25:24.384Z,23.57
2019-01-11T14:27:53.620Z,24.53
2019-01-11T14:30:22.834Z,19.87
2019-01-11T14:32:52.062Z,19.87
2019-01-11T14:35:21.286Z,20.63
2019-01-11T14:37:50.533Z,16.63
2019-01-11T14:40:20.166Z,15.37
2019-01-11T14:42:49.390Z,14.90
2019-01-11T14:45:18.671Z,17.70
2019-01-11T14:47:47.897Z,14.77
2019-01-11T14:50:18.767Z,13.97
2019-01-11T14:52:47.961Z,12.93
2019-01-11T14:55:17.620Z,14.97
2019-01-11T14:57:47.118Z,12.43
2019-01-11T15:00:18.909Z,14.80
2019-01-11T15:02:48.361Z,15.20
2019-01-11T15:05:18.418Z,16.67
2019-01-11T15:07:47.626Z,15.40
2019-01-11T15:10:17.386Z,13.50
2019-01-11T15:12:48.315Z,14.33
2019-01-11T15:15:17.602Z,14.57
2019-01-11T15:17:46.827Z,13.10
2019-01-11T15:20:18.110Z,14.30
2019-01-11T15:22:47.878Z,12.57
2019-01-11T15:25:17.350Z,14.63
2019-01-11T15:27:46.663Z,12.30
2019-01-11T15:30:17.954Z,12.60
2019-01-11T15:32:47.355Z,13.03
2019-01-11T15:35:16.920Z,11.90
2019-01-11T15:37:46.126Z,12.90
2019-01-11T15:40:21.118Z,11.70
2019-01-11T15:42:51.417Z,10.90
2019-01-11T15:45:20.690Z,12.07
2019-01-11T15:47:49.914Z,12.13
2019-01-11T15:50:41.783Z,10.83
2019-01-11T15:53:11.017Z,10.90
2019-01-11T15:55:40.242Z,12.50
2019-01-11T15:58:10.348Z,11.80
2019-01-11T16:00:44.668Z,12.00
2019-01-11T16:03:14.038Z,13.57
2019-01-11T16:05:43.241Z,13.70
2019-01-11T16:08:13.483Z,14.03
2019-01-11T16:11:03.473Z,10.43
2019-01-11T16:13:34.090Z,12.93
2019-01-11T16:16:05.954Z,12.97
2019-01-11T16:18:35.195Z,12.77
2019-01-11T16:21:04.523Z,12.97
2019-01-11T16:23:33.791Z,12.67
2019-01-11T16:26:03.142Z,11.47
2019-01-11T16:28:32.478Z,12.37
2019-01-11T16:31:01.686Z,13.13
2019-01-11T16:33:30.944Z,12.17
2019-01-11T16:36:00.141Z,13.77
2019-01-11T16:38:29.372Z,12.43
2019-01-11T16:40:58.896Z,12.87
2019-01-11T16:43:28.333Z,12.80
2019-01-11T16:45:57.538Z,26.13
2019-01-11T16:48:26.764Z,13.67
2019-01-11T16:50:56.057Z,14.83
2019-01-11T16:53:25.298Z,14.67
2019-01-11T16:55:54.579Z,15.80
2019-01-11T16:58:23.814Z,14.40
2019-01-11T17:00:53.009Z,17.20
2019-01-11T17:03:22.248Z,14.70
2019-01-11T17:05:51.451Z,15.07
2019-01-11T17:08:20.702Z,14.10
2019-01-11T17:10:49.914Z,18.70
2019-01-11T17:13:19.460Z,15.23
2019-01-11T17:15:48.751Z,19.33
2019-01-11T17:18:17.952Z,17.07
2019-01-11T17:20:47.174Z,16.20
2019-01-11T17:23:16.534Z,16.90
2019-01-11T17:25:45.858Z,18.97
2019-01-11T17:28:15.113Z,18.97
2019-01-11T17:30:44.343Z,17.43
2019-01-11T17:33:13.553Z,20.87
2019-01-11T17:35:42.771Z,18.00
2019-01-11T17:38:12.001Z,17.47
2019-01-11T17:40:41.212Z,17.43
2019-01-11T17:43:10.488Z,19.07
2019-01-11T17:45:39.716Z,18.70
2019-01-11T17:48:08.983Z,17.43
2019-01-11T17:50:38.207Z,17.57
2019-01-11T17:53:07.435Z,18.30
2019-01-11T17:55:36.631Z,17.27
2019-01-11T17:58:05.942Z,19.27
2019-01-11T18:00:35.169Z,16.47
2019-01-11T18:03:06.050Z,18.13
2019-01-11T18:05:35.243Z,21.90
2019-01-11T18:08:05.438Z,19.03
2019-01-11T18:10:34.666Z,17.23
2019-01-11T18:13:04.065Z,16.83
2019-01-11T18:15:33.275Z,16.37
2019-01-11T18:18:02.495Z,20.37
2019-01-11T18:20:31.713Z,16.07
2019-01-11T18:23:06.788Z,16.43
2019-01-11T18:25:32.158Z,16.30
2019-01-11T18:28:01.421Z,15.13
2019-01-11T18:30:30.623Z,17.00
2019-01-11T18:32:59.859Z,17.33
2019-01-11T18:35:29.058Z,17.30
2019-01-11T18:37:58.283Z,15.00
2019-01-11T18:40:27.504Z,15.40
2019-01-11T18:42:56.706Z,16.57
2019-01-11T18:45:28.849Z,14.57
2019-01-11T18:47:56.903Z,16.33
2019-01-11T18:50:26.125Z,15.20
2019-01-11T18:52:55.832Z,14.33
2019-01-11T18:55:25.039Z,15.83
2019-01-11T18:57:55.037Z,15.10
2019-01-11T19:00:24.925Z,16.23
2019-01-11T19:02:54.471Z,14.90
2019-01-11T19:05:23.702Z,14.90
2019-01-11T19:07:52.935Z,14.43
2019-01-11T19:10:22.205Z,14.50
2019-01-11T19:12:51.478Z,16.00
2019-01-11T19:15:26.359Z,13.57
2019-01-11T19:17:55.577Z,14.20
2019-01-11T19:20:26.750Z,12.63
2019-01-11T19:22:56.041Z,14.17
2019-01-11T19:25:25.322Z,14.30
2019-01-11T19:27:54.631Z,12.30
2019-01-11T19:30:25.999Z,14.10
2019-01-11T19:32:55.196Z,14.70
2019-01-11T19:35:24.575Z,14.60
2019-01-11T19:37:53.849Z,15.43
2019-01-11T19:40:23.096Z,15.10
2019-01-11T19:42:52.295Z,15.00
2019-01-11T19:45:21.600Z,16.50
2019-01-11T19:47:50.803Z,20.70
2019-01-11T19:50:21.775Z,15.17
2019-01-11T19:52:51.859Z,18.20
2019-01-11T19:55:22.150Z,15.80
2019-01-11T19:57:51.343Z,17.13
2019-01-11T20:00:25.730Z,16.13
2019-01-11T20:02:55.040Z,16.87
2019-01-11T20:05:25.817Z,15.93
2019-01-11T20:07:55.221Z,15.53
2019-01-11T20:10:27.379Z,15.97
2019-01-11T20:12:56.780Z,13.87
2019-01-11T20:15:26.046Z,14.37
2019-01-11T20:17:55.362Z,14.63
2019-01-11T20:20:25.778Z,15.70
2019-01-11T20:23:01.948Z,14.30
2019-01-11T20:25:26.050Z,15.23
2019-01-11T20:27:55.256Z,15.63
2019-01-11T20:30:25.810Z,16.13
2019-01-11T20:32:55.115Z,15.73
2019-01-11T20:35:24.528Z,13.70
2019-01-11T20:37:54.110Z,16.70
2019-01-11T20:40:23.690Z,17.93
2019-01-11T20:42:52.911Z,14.70
2019-01-11T20:45:22.262Z,14.40
2019-01-11T20:47:51.607Z,14.47
2019-01-11T20:50:22.178Z,15.20
2019-01-11T20:52:51.542Z,15.50
2019-01-11T20:55:21.124Z,18.27
2019-01-11T20:57:50.394Z,15.53
2019-01-11T21:00:23.649Z,15.60
2019-01-11T21:02:52.954Z,15.17
2019-01-11T21:05:22.228Z,14.00
2019-01-11T21:07:51.522Z,13.47
2019-01-11T21:10:21.092Z,14.70
2019-01-11T21:12:50.371Z,15.73
2019-01-11T21:15:21.639Z,13.97
2019-01-11T21:17:51.304Z,14.93
2019-01-11T21:20:20.767Z,17.20
2019-01-11T21:22:50.151Z,18.00
2019-01-11T21:25:20.310Z,17.10
2019-01-11T21:27:49.941Z,17.27
2019-01-11T21:30:22.081Z,17.30
2019-01-11T21:32:51.358Z,14.30
2019-01-11T21:35:20.756Z,13.53
2019-01-11T21:37:50.030Z,14.37
2019-01-11T21:40:20.806Z,12.97
2019-01-11T21:42:50.520Z,14.03
2019-01-11T21:45:20.027Z,17.30
2019-01-11T21:47:49.750Z,14.33
2019-01-11T21:50:22.123Z,13.63
2019-01-11T21:52:51.888Z,13.10
2019-01-11T21:55:21.158Z,12.87
2019-01-11T21:57:50.467Z,12.63
2019-01-11T22:00:25.331Z,13.17
2019-01-11T22:02:55.087Z,13.90
2019-01-11T22:05:24.486Z,14.03
2019-01-11T22:07:53.790Z,14.73
2019-01-11T22:10:23.002Z,13.47
2019-01-11T22:12:52.223Z,13.43
2019-01-11T22:15:21.622Z,12.73
2019-01-11T22:17:51.100Z,14.20
2019-01-11T22:20:20.348Z,11.97
2019-01-11T22:22:49.547Z,12.30
2019-01-11T22:25:19.237Z,13.60
2019-01-11T22:27:48.446Z,16.13
2019-01-11T22:30:20.407Z,13.13
2019-01-11T22:32:49.623Z,13.17
2019-01-11T22:35:19.096Z,12.53
2019-01-11T22:37:48.370Z,13.67
2019-01-11T22:40:22.222Z,12.40
2019-01-11T22:42:53.983Z,13.10
2019-01-11T22:45:23.363Z,11.67
2019-01-11T22:47:52.554Z,12.43
2019-01-11T22:50:21.788Z,13.37
2019-01-11T22:52:52.401Z,12.33
2019-01-11T22:55:21.921Z,11.90
2019-01-11T22:57:51.120Z,14.70
2019-01-11T23:00:52.642Z,14.50
2019-01-11T23:03:32.628Z,14.50
2019-01-11T23:06:09.234Z,14.33
2019-01-11T23:08:38.681Z,14.63
2019-01-11T23:11:17.299Z,14.63
2019-01-11T23:13:46.507Z,14.13
2019-01-11T23:16:18.909Z,14.70
2019-01-11T23:18:49.959Z,13.70
2019-01-11T23:21:19.175Z,14.67
2019-01-11T23:23:48.737Z,12.83
2019-01-11T23:26:17.923Z,13.50
2019-01-11T23:28:47.164Z,16.23
2019-01-11T23:31:16.546Z,13.67
2019-01-11T23:33:45.944Z,13.77
2019-01-11T23:36:15.242Z,14.00
2019-01-11T23:38:44.439Z,12.97
2019-01-11T23:41:13.665Z,13.00
2019-01-11T23:43:42.899Z,12.63
2019-01-11T23:46:12.132Z,12.23
2019-01-11T23:48:41.331Z,13.40
2019-01-11T23:51:10.560Z,12.07
2019-01-11T23:53:40.033Z,12.27
2019-01-11T23:56:09.248Z,13.50
2019-01-11T23:58:38.456Z,12.17
